Latest Coastal Weather Observations for Low Rocky Point

IDT60701

Issued at 11:32 am EST Tuesday 21 April 2015 (issued every 10 minutes, with the page automatically refreshed every 10 minutes)

About coastal observations | Map of coastal stations | Coastal observations for TAS | Marine services | Other Formats
Station Details ID: 097080 Name: LOW ROCKY POINT Lat: -42.98 Lon: 145.50 Height: 34.0 m
Data from the previous 72 hours. | See also: Recent months at Low Rocky Point
Date/Time
EST
Temp

°C
Wind Pressure Rain
since 9am
mm
Weather Cloud Vis
km
Sea
Height
m
Swell
Dir
 
Speed
knots
Gust
knots
hPa Trend Height
m
Period
s
Dir
21/11:30am 12.9 NNW 9 11 1034.2 - 0.0 - - - - - - -
21/11:00am 12.5 N 8 10 1034.4 - 0.0 - - - - - - -
21/10:30am 12.5 N 8 10 1034.6 - 0.0 - - - - - - -
21/10:00am 12.5 NNW 9 12 1034.6 - 0.0 - - - - - - -
21/09:30am 12.5 N 9 12 1034.7 - 0.0 - - - - - - -
21/09:00am 12.3 N 8 11 1034.8 - 0.0 - - - - - - -
21/08:30am 11.6 N 8 11 1034.8 - 0.0 - - - - - - -
21/08:00am 11.3 N 8 11 1034.6 - 0.0 - - - - - - -
21/07:30am 11.1 N 9 11 1034.5 - 0.0 - - - - - - -
21/07:00am 11.0 N 8 10 1034.3 - 0.0 - - - - - - -
21/06:30am 10.9 N 9 11 1034.1 - 0.0 - - - - - - -
21/06:00am 11.0 N 10 12 1034.1 - 0.0 - - - - - - -
21/05:30am 10.9 N 9 11 1034.1 - 0.0 - - - - - - -
21/05:00am 10.9 N 9 11 1034.0 - 0.0 - - - - - - -
21/04:30am 10.9 N 9 11 1033.8 - 0.0 - - - - - - -
21/04:00am 10.8 N 10 12 1033.7 - 0.0 - - - - - - -
21/03:30am 10.6 N 9 11 1033.6 - 0.0 - - - - - - -
21/03:00am 10.5 N 8 11 1033.7 - 0.0 - - - - - - -
21/02:30am 11.1 N 8 10 1033.9 - 0.0 - - - - - - -
21/02:00am 12.9 WNW 10 13 1034.0 - 0.0 - - - - - - -
21/01:30am 13.0 WNW 11 14 1034.0 - 0.0 - - - - - - -
21/01:00am 12.7 WNW 12 14 1034.2 - 0.0 - - - - - - -
21/12:30am 12.6 WNW 12 14 1034.3 - 0.0 - - - - - - -
21/12:00am 12.6 WNW 11 13 1034.4 - 0.0 - - - - - - -
 
Date/Time
EST
Temp

°C
Wind Pressure Rain
since 9am
mm
Weather Cloud Vis
km
Sea
Height
m
Swell
Dir
 
Speed
knots
Gust
knots
hPa Trend Height
m
Period
s
Dir
20/11:30pm 12.8 WNW 12 14 1034.5 - 0.0 - - - - - - -
20/11:00pm 12.8 WNW 13 15 1034.7 - 0.0 - - - - - - -
20/10:30pm 12.7 WNW 13 16 1034.9 - 0.0 - - - - - - -
20/10:00pm 12.6 W 13 16 1035.1 - 0.0 - - - - - - -
20/09:30pm 12.7 W 13 15 1035.0 - 0.0 - - - - - - -
20/09:00pm 12.8 W 13 15 1035.0 - 0.0 - - - - - - -
20/08:30pm 13.1 W 14 16 1034.9 - 0.0 - - - - - - -
20/08:00pm 13.1 WNW 12 14 1034.8 - 0.0 - - - - - - -
20/07:30pm 13.0 WNW 12 14 1034.9 - 0.0 - - - - - - -
20/07:00pm 13.0 WNW 13 15 1034.8 - 0.0 - - - - - - -
20/06:30pm 12.9 WNW 13 16 1034.7 - 0.0 - - - - - - -
20/06:00pm 12.6 WNW 14 17 1034.8 - 0.0 - - - - - - -
20/05:30pm 12.6 NW 14 18 1034.7 - 0.0 - - - - - - -
20/05:00pm 12.7 NW 15 18 1034.6 - 0.0 - - - - - - -
20/04:30pm 12.6 NW 16 21 1034.5 - 0.0 - - - - - - -
20/04:00pm 12.8 NW 16 21 1034.6 - 0.0 - - - - - - -
20/03:30pm 12.5 NW 16 20 1034.6 - 0.0 - - - - - - -
20/03:00pm 12.0 NW 17 22 1034.8 - 0.0 - - - - - - -
20/02:30pm 11.9 NW 19 23 1034.8 - 0.0 - - - - - - -
20/02:00pm 12.8 NW 17 20 1034.9 - 0.0 - - - - - - -
20/01:30pm 12.7 NW 19 22 1035.0 - 0.0 - - - - - - -
20/01:00pm 12.2 NW 17 21 1035.4 - 0.0 - - - - - - -
20/12:30pm 12.4 NW 18 23 1035.6 - 0.0 - - - - - - -
20/12:00pm 12.4 NNW 18 22 1035.9 - 0.0 - - - - - - -
20/11:30am 12.4 NNW 17 21 1036.1 - 0.0 - - - - - - -
20/11:00am 12.4 NNW 16 20 1036.1 - 0.0 - - - - - - -
20/10:30am 11.9 NNW 15 19 1036.2 - 0.0 - - - - - - -
20/10:00am 11.7 NNW 14 19 1036.3 - 0.0 - - - - - - -
20/09:30am 11.4 NNW 11 15 1036.3 - 0.0 - - - - - - -
20/09:00am 11.1 NNW 11 16 1036.3 - 0.2 - - - - - - -
20/08:30am 9.4 N 11 13 1036.2 - 0.2 - - - - - - -
20/08:00am 7.3 N 10 13 1036.0 - 0.2 - - - - - - -
20/07:30am 6.4 N 11 13 1035.9 - 0.2 - - - - - - -
20/07:00am 5.8 N 10 13 1035.6 - 0.2 - - - - - - -
20/06:30am 6.0 N 10 13 1035.5 - 0.2 - - - - - - -
20/06:00am 5.9 N 9 11 1035.3 - 0.2 - - - - - - -
20/05:30am 6.6 N 11 13 1035.1 - 0.2 - - - - - - -
20/05:00am 6.4 N 9 11 1034.8 - 0.2 - - - - - - -
20/04:30am 6.7 N 9 11 1034.9 - 0.2 - - - - - - -
20/04:00am 7.0 N 6 9 1034.7 - 0.2 - - - - - - -
20/03:30am 7.3 NNE 7 9 1034.7 - 0.2 - - - - - - -
20/03:00am 7.4 N 7 10 1034.7 - 0.2 - - - - - - -
20/02:30am 6.8 N 8 10 1034.8 - 0.2 - - - - - - -
20/02:00am 6.7 N 9 11 1034.8 - 0.2 - - - - - - -
20/01:30am 7.1 N 7 11 1034.7 - 0.2 - - - - - - -
20/01:00am 8.0 NNW 7 11 1034.7 - 0.2 - - - - - - -
20/12:30am 10.3 WNW 10 13 1034.6 - 0.2 - - - - - - -
20/12:00am 9.8 WNW 9 13 1034.6 - 0.2 - - - - - - -
 
Date/Time
EST
Temp

°C
Wind Pressure Rain
since 9am
mm
Weather Cloud Vis
km
Sea
Height
m
Swell
Dir
 
Speed
knots
Gust
knots
hPa Trend Height
m
Period
s
Dir
19/11:30pm 9.7 NW 11 13 1034.5 - 0.2 - - - - - - -
19/11:00pm 9.8 W 8 10 1034.5 - 0.2 - - - - - - -
19/10:30pm 10.0 W 11 15 1034.4 - 0.2 - - - - - - -
19/10:00pm 9.2 SW 10 15 1034.3 - 0.2 - - - - - - -
19/09:30pm 9.8 WSW 10 15 1034.2 - 0.2 - - - - - - -
19/09:00pm 9.3 WSW 10 14 1033.9 - 0.2 Recent precip. - - - - - -
19/08:30pm 8.7 WSW 8 10 1033.6 - 0.2 - - - - - - -
19/08:00pm 9.4 WSW 17 22 1033.4 - 0.0 - - - - - - -
19/07:30pm 9.8 W 12 17 1032.8 - 0.0 - - - - - - -
19/07:00pm 9.5 W 13 17 1032.3 - 0.0 - - - - - - -
19/06:30pm 9.4 WSW 11 21 1031.9 - 0.0 - - - - - - -
19/06:00pm 8.8 WNW 10 13 1031.4 - 0.0 - - - - - - -
19/05:30pm 10.2 W 13 18 1031.1 - 0.0 - - - - - - -
19/05:00pm 11.0 WNW 10 15 1030.6 - 0.0 - - - - - - -
19/04:30pm 11.3 W 13 16 1030.5 - 0.0 - - - - - - -
19/04:00pm 11.8 W 13 17 1030.2 - 0.0 - - - - - - -
19/03:30pm 12.1 W 14 19 1030.0 - 0.0 - - - - - - -
19/03:00pm 11.3 WSW 13 19 1029.7 - 0.0 - - - - - - -
19/02:30pm 12.5 WSW 11 16 1029.3 - 0.0 - - - - - - -
19/02:00pm 12.3 WSW 12 17 1029.1 - 0.0 - - - - - - -
19/01:30pm 13.1 SW 10 13 1028.9 - 0.0 - - - - - - -
19/01:00pm 12.4 SW 11 15 1028.6 - 0.0 - - - - - - -
19/12:30pm 12.6 SSE 10 15 1028.6 - 0.0 - - - - - - -
19/12:00pm 12.2 SW 11 16 1028.3 - 0.0 - - - - - - -
19/11:30am 12.3 SW 12 19 1028.1 - 0.0 - - - - - - -
19/11:00am 11.4 SW 13 17 1027.6 - 0.0 - - - - - - -
19/10:30am 10.6 SSW 14 21 1027.1 - 0.0 - - - - - - -
19/10:00am 10.8 SSW 13 19 1026.6 - 0.0 - - - - - - -
19/09:30am 10.3 SSW 17 25 1026.1 - 0.0 - - - - - - -
19/09:24am 11.4 SSW 15 25 1026.0 - 0.0 - - - - - - -
19/09:00am 10.4 S 15 21 1025.7 - 20.6 - - - - - - -
19/08:30am 9.5 SSW 13 22 1025.4 - 20.6 - - - - - - -
19/08:00am 8.2 SSW 16 23 1024.7 - 20.6 Recent precip. - - - - - -
19/07:42am 7.4 SSW 14 23 1024.3 - 20.4 - - - - - - -
19/07:35am 7.7 SW 20 31 1024.3 - 20.4 - - - - - - -
19/07:30am 8.1 SW 18 31 1023.9 - 20.4 - - - - - - -
19/07:01am 9.1 SSW 17 29 1023.0 - 20.4 - - - - - - -
19/07:00am 9.1 SSW 17 25 1023.0 - 20.4 - - - - - - -
19/06:33am 9.0 SSW 18 28 1022.2 - 20.4 - - - - - - -
19/06:30am 8.9 SSW 19 28 1022.1 - 20.4 - - - - - - -
19/06:12am 9.2 SSW 15 25 1021.5 - 20.4 - - - - - - -
19/06:00am 9.2 SSW 17 24 1021.3 - 20.4 - - - - - - -
19/05:30am 9.3 SW 17 24 1020.6 - 20.4 - - - - - - -
19/05:00am 9.4 SSW 19 26 1019.8 - 20.4 - - - - - - -
19/04:37am 9.4 SSW 16 27 1019.2 - 20.4 - - - - - - -
19/04:30am 9.3 SSW 16 22 1019.1 - 20.4 - - - - - - -
19/04:12am 9.2 SSW 19 29 1018.8 - 20.4 - - - - - - -
19/04:00am 8.9 SSW 22 30 1018.5 - 20.4 - - - - - - -
19/03:46am 9.8 SSW 19 31 1018.0 - 20.4 - - - - - - -
19/03:30am 9.5 SSW 18 26 1017.7 - 20.4 - - - - - - -
19/03:14am 9.6 SSW 19 29 1017.4 - 20.4 - - - - - - -
19/03:00am 9.7 SSW 20 28 1017.1 - 20.4 - - - - - - -
19/02:30am 9.0 SSW 19 29 1016.6 - 20.4 - - - - - - -
19/02:00am 9.4 SSW 18 26 1015.9 - 20.4 - - - - - - -
19/01:30am 9.0 SSW 22 32 1015.5 - 20.4 - - - - - - -
19/01:14am 9.3 S 16 27 1015.0 - 20.4 - - - - - - -
19/01:00am 9.1 S 19 26 1014.6 - 20.4 Rain - - - - - -
19/12:30am 8.9 S 19 27 1014.1 - 20.2 - - - - - - -
19/12:00am 8.9 SW 22 33 1013.1 - 20.2 Rain - - - - - -
 
Date/Time
EST
Temp

°C
Wind Pressure Rain
since 9am
mm
Weather Cloud Vis
km
Sea
Height
m
Swell
Dir
 
Speed
knots
Gust
knots
hPa Trend Height
m
Period
s
Dir
18/11:35pm 9.1 SSW 15 25 1012.8 - 19.2 - - - - - - -
18/11:30pm 9.5 SSW 18 25 1012.7 - 19.0 - - - - - - -
18/11:14pm 9.7 SW 15 27 1012.2 - 19.0 - - - - - - -
18/11:00pm 9.7 SW 10 15 1012.0 - 19.0 - - - - - - -
18/10:30pm 9.4 SW 19 26 1011.6 - 19.0 - - - - - - -
18/10:00pm 11.2 WSW 16 21 1010.8 - 19.0 - - - - - - -
18/09:30pm 11.4 WSW 20 24 1010.2 - 19.0 - - - - - - -
18/09:00pm 11.4 W 18 23 1009.6 - 19.0 - - - - - - -
18/08:30pm 11.3 W 19 24 1009.1 - 19.0 - - - - - - -
18/08:00pm 11.4 W 18 22 1008.5 - 19.0 - - - - - - -
18/07:30pm 11.0 W 19 23 1007.9 - 19.0 - - - - - - -
18/07:06pm 10.6 W 20 26 1007.7 - 19.0 - - - - - - -
18/07:00pm 11.0 WNW 21 25 1007.4 - 19.0 Recent precip. - - - - - -
18/06:30pm 9.7 W 24 34 1006.9 - 19.0 - - - - - - -
18/06:27pm 9.3 W 28 37 1006.9 - 19.0 - - - - - - -
18/06:26pm 9.5 W 30 37 1007.0 - 19.0 - - - - - - -
18/06:12pm 10.0 WNW 25 35 1006.7 - 16.2 - - - - - - -
18/06:00pm 10.8 NW 20 25 1006.1 - 15.2 Recent precip. - - - - - -
18/05:33pm 9.8 NW 23 33 1006.0 - 15.2 - - - - - - -
18/05:30pm 9.7 NW 24 33 1006.0 - 15.2 - - - - - - -
18/05:00pm 9.9 WNW 24 36 1005.8 - 13.8 Rain - - - - - -
18/04:54pm 10.9 NW 21 31 1005.9 - 12.2 - - - - - - -
18/04:30pm 10.9 NW 19 26 1005.4 - 12.2 - - - - - - -
18/04:00pm 10.6 NW 22 27 1005.3 - 12.0 Recent precip. - - - - - -
18/03:30pm 10.5 NW 17 21 1005.2 - 11.8 - - - - - - -
18/03:00pm 10.3 NW 20 24 1005.0 - 10.8 Rain - - - - - -
18/02:30pm 10.4 WNW 18 21 1004.8 - 9.0 - - - - - - -
18/02:00pm 10.6 WNW 19 25 1004.7 - 7.4 Rain - - - - - -
18/01:30pm 10.7 W 18 23 1004.3 - 5.8 - - - - - - -
18/01:00pm 10.9 W 21 27 1003.9 - 5.0 Rain - - - - - -
18/12:30pm 10.6 WSW 23 31 1003.9 - 3.8 - - - - - - -
18/12:09pm 11.4 NW 26 43 1002.9 - 2.0 - - - - - - -
18/12:00pm 13.7 NNW 26 39 1002.5 - 0.2 Recent precip. - - - - - -

Other Formats:

Comma delimited format used in spreadsheet applications
http://www.bom.gov.au/fwo/IDT60701/IDT60701.95961.axf

JavaScript Object Notation format (JSON) in row-major order
http://www.bom.gov.au/fwo/IDT60701/IDT60701.95961.json